Alum Ridge, Virginia
Current Conditions -  °F | °C
As of 3:15 PM on Wednesday 26 Nov 2014 (Local Time) from KBCB Reporting Station
Overcast Overcast  
Wind Chill: 38°   Ceiling: 4500
Heat Index: 41°   Visibility: 10mi
Dew Point: 39°   Wind: 5mph
Humidity: 93%   Direction: 270°W
Pressure: 29.97"   Gusts: NA
Location:  36.9207°N, 80.3192°W
Report Text: KBCB 262015Z AUTO 27004KT 10SM SCT013 OVC045 05/04 A2997 RMK AO2
Loading
Personal Weather Stations






























Interactive Weather Map New forecast layout! Learn more

10-Day Weather Forecast

Advertisements
Track Severe Weather on mobile